Time;durP1;ratioP1;P1;durP2;ratioP2;P2;SDS_P1;SDS_P2;PMS_P1;PMS_P2;Temp;Humidity;BMP_temperature;BMP_pressure;BME280_temperature;BME280_humidity;BME280_pressure;Samples;Min_cycle;Max_cycle;Signal;HPM_P1;HPM_P2
2023/04/13 00:02:19;;;;;;;5.10;2.60;;;7.20;99.90;;;;;;4950894;28;20108;-74
2023/04/13 00:04:45;;;;;;;9.25;2.60;;;7.20;99.90;;;;;;4966411;28;20112;-75
2023/04/13 00:07:13;;;;;;;6.25;2.67;;;7.30;99.90;;;;;;4966535;28;20049;-73
2023/04/13 00:09:40;;;;;;;4.05;2.30;;;8.10;99.90;;;;;;4967774;28;20369;-74
2023/04/13 00:12:06;;;;;;;4.80;2.72;;;7.30;99.90;;;;;;4965453;28;20042;-74
2023/04/13 00:14:34;;;;;;;7.47;2.60;;;7.30;99.90;;;;;;4963926;28;20096;-77
2023/04/13 00:17:00;;;;;;;4.95;2.50;;;7.30;99.90;;;;;;4966656;28;20506;-75
2023/04/13 00:19:25;;;;;;;4.15;2.40;;;7.30;99.90;;;;;;4965139;28;20124;-76
2023/04/13 00:21:54;;;;;;;4.60;2.20;;;7.30;99.90;;;;;;4967368;28;20054;-75
2023/04/13 00:24:20;;;;;;;3.80;2.35;;;7.20;99.90;;;;;;4965904;28;20387;-76
2023/04/13 00:26:46;;;;;;;5.25;1.83;;;7.10;99.90;;;;;;4952050;28;20062;-75
2023/04/13 00:29:12;;;;;;;2.67;1.50;;;7.20;99.90;;;;;;4988822;28;20038;-75
2023/04/13 00:31:38;;;;;;;4.05;1.80;;;7.20;99.90;;;;;;4967270;28;20066;-75
2023/04/13 00:34:04;;;;;;;3.67;1.63;;;7.10;99.90;;;;;;4949031;28;20070;-75
2023/04/13 00:36:30;;;;;;;4.07;1.80;;;7.10;99.90;;;;;;4948158;28;20161;-75
2023/04/13 00:38:56;;;;;;;4.20;1.70;;;7.10;99.90;;;;;;4950581;28;20026;-75
2023/04/13 00:41:23;;;;;;;4.18;2.10;;;7.00;99.90;;;;;;4981942;28;20037;-75
2023/04/13 00:43:49;;;;;;;3.13;1.80;;;7.00;99.90;;;;;;4966303;28;20046;-75
2023/04/13 00:46:17;;;;;;;5.32;1.88;;;7.00;99.90;;;;;;4964279;28;20051;-75
2023/04/13 00:48:44;;;;;;;5.97;1.83;;;7.00;99.90;;;;;;4951941;28;20398;-76
2023/04/13 00:51:10;;;;;;;4.53;1.80;;;7.00;99.90;;;;;;4963128;28;20034;-75
2023/04/13 00:53:36;;;;;;;6.38;1.90;;;7.00;99.90;;;;;;4984615;28;20042;-74
2023/04/13 00:56:04;;;;;;;6.07;1.85;;;7.00;99.90;;;;;;4962924;28;20026;-76
2023/04/13 00:58:31;;;;;;;7.43;2.38;;;7.00;99.90;;;;;;4950361;28;20084;-75
2023/04/13 01:00:57;;;;;;;6.32;1.95;;;7.00;99.90;;;;;;4965227;28;20048;-76
2023/04/13 01:03:24;;;;;;;5.55;2.05;;;7.00;99.90;;;;;;4964219;28;20038;-75
2023/04/13 01:06:05;;;;;;;5.43;1.83;;;6.90;99.90;;;;;;4950021;28;20048;-75
2023/04/13 01:08:45;;;;;;;5.57;2.10;;;6.90;99.90;;;;;;4970909;28;20053;-75
2023/04/13 01:11:24;;;;;;;7.60;2.38;;;6.90;99.90;;;;;;4950246;28;20066;-79
2023/04/13 01:13:59;;;;;;;5.38;2.13;;;7.20;99.90;;;;;;4965991;28;20270;-76
2023/04/13 01:16:32;;;;;;;6.13;2.03;;;6.90;99.90;;;;;;4956140;28;20038;-76
2023/04/13 01:18:58;;;;;;;;;;;6.70;99.90;;;;;;4975256;28;20042;-76
2023/04/13 01:21:27;;;;;;;6.00;1.98;;;7.70;99.90;;;;;;4962711;28;19996;-76
2023/04/13 01:24:31;;;;;;;3.25;1.90;;;6.80;99.90;;;;;;4973935;28;20030;-76
2023/04/13 01:27:35;;;;;;;4.82;2.15;;;6.90;99.90;;;;;;4994947;28;20414;-76
2023/04/13 01:30:05;;;;;;;7.45;1.98;;;6.90;99.90;;;;;;4942112;28;20054;-76
2023/04/13 01:32:32;;;;;;;5.72;1.90;;;6.90;99.90;;;;;;4970639;28;20442;-76
2023/04/13 01:34:57;;;;;;;4.40;1.65;;;6.90;99.90;;;;;;4972929;28;20035;-76
2023/04/13 01:37:24;;;;;;;5.13;2.13;;;6.90;99.90;;;;;;4970940;28;20042;-76
2023/04/13 01:39:50;;;;;;;3.75;1.40;;;8.20;99.90;;;;;;4991420;28;20046;-77
2023/04/13 01:42:15;;;;;;;6.25;1.80;;;6.90;99.90;;;;;;4960796;28;20064;-75
2023/04/13 01:44:41;;;;;;;2.40;1.33;;;6.90;99.90;;;;;;4973463;28;20038;-76
2023/04/13 01:47:14;;;;;;;6.93;1.50;;;6.90;99.90;;;;;;4952753;28;21326;-76
2023/04/13 01:50:03;;;;;;;5.07;1.67;;;6.90;99.90;;;;;;4963859;28;20046;-77
2023/04/13 01:52:32;;;;;;;4.80;1.40;;;6.90;99.90;;;;;;4962967;28;20487;-75
2023/04/13 01:54:59;;;;;;;6.53;1.30;;;7.60;99.90;;;;;;4948384;28;20359;-75
2023/04/13 01:57:29;;;;;;;4.18;1.50;;;6.90;99.90;;;;;;4948170;28;20449;-75
2023/04/13 01:59:54;;;;;;;3.80;1.30;;;6.80;99.90;;;;;;4948210;28;20057;-77
2023/04/13 02:02:20;;;;;;;2.85;1.40;;;6.80;99.90;;;;;;4982559;28;20046;-76
2023/04/13 02:04:46;;;;;;;6.20;1.48;;;6.70;99.90;;;;;;4980996;28;20491;-75
2023/04/13 02:07:11;;;;;;;2.92;1.30;;;6.80;99.90;;;;;;4946443;28;20097;-75
2023/04/13 02:09:37;;;;;;;1.65;1.30;;;6.80;99.90;;;;;;4961312;28;20050;-76
2023/04/13 02:12:03;;;;;;;3.25;1.30;;;6.80;99.90;;;;;;4950429;28;20116;-76
2023/04/13 02:14:29;;;;;;;1.75;1.08;;;6.80;99.90;;;;;;4962643;28;20445;-76
2023/04/13 02:16:57;;;;;;;4.30;1.40;;;6.80;99.90;;;;;;4950653;28;20026;-76
2023/04/13 02:19:31;;;;;;;3.17;1.40;;;6.80;99.90;;;;;;4966066;28;20100;-77
2023/04/13 02:21:56;;;;;;;6.65;1.60;;;6.80;99.90;;;;;;4966472;28;20043;-75
2023/04/13 02:24:24;;;;;;;4.05;1.52;;;6.80;99.90;;;;;;4966541;28;20034;-76
2023/04/13 02:26:50;;;;;;;4.72;1.45;;;6.80;99.90;;;;;;4967776;28;20070;-76
2023/04/13 02:29:19;;;;;;;2.88;1.45;;;6.80;99.90;;;;;;4968984;28;20129;-75
2023/04/13 02:31:44;;;;;;;6.88;1.80;;;6.80;99.90;;;;;;4974633;28;20386;-76
2023/04/13 02:34:10;;;;;;;4.63;1.55;;;6.70;99.90;;;;;;4984802;28;20081;-75
2023/04/13 02:36:42;;;;;;;3.83;1.73;;;6.70;99.90;;;;;;4970153;28;20065;-75
2023/04/13 02:39:11;;;;;;;4.38;1.40;;;6.70;99.90;;;;;;4952636;28;20050;-75
2023/04/13 02:41:37;;;;;;;4.30;1.60;;;6.70;99.90;;;;;;4951576;28;20391;-75
2023/04/13 02:44:07;;;;;;;4.75;1.65;;;6.70;99.90;;;;;;4968941;28;20054;-76
2023/04/13 02:46:33;;;;;;;2.65;1.52;;;6.70;99.90;;;;;;4967971;28;20414;-77
2023/04/13 02:48:58;;;;;;;3.30;1.48;;;6.70;99.90;;;;;;4967287;28;20046;-76
2023/04/13 02:51:24;;;;;;;5.95;1.60;;;6.70;99.90;;;;;;4952109;28;20502;-76
2023/04/13 02:53:51;;;;;;;3.88;1.50;;;6.70;99.90;;;;;;4958258;28;20038;-75
2023/04/13 02:56:16;;;;;;;3.72;1.50;;;6.70;99.90;;;;;;4964419;28;20432;-75
2023/04/13 02:58:43;;;;;;;3.78;1.60;;;6.60;99.90;;;;;;4969086;28;20114;-75
2023/04/13 03:01:09;;;;;;;4.70;1.63;;;6.70;99.90;;;;;;4952898;28;20078;-75
2023/04/13 03:03:35;;;;;;;3.80;1.63;;;6.60;99.90;;;;;;4968871;28;20140;-75
2023/04/13 03:06:01;;;;;;;2.92;1.55;;;6.70;99.90;;;;;;4965629;28;20080;-75
2023/04/13 03:08:27;;;;;;;4.32;1.60;;;6.60;99.90;;;;;;4954771;28;20502;-75
2023/04/13 03:10:53;;;;;;;2.65;1.55;;;6.70;99.90;;;;;;4966984;28;20038;-75
2023/04/13 03:13:20;;;;;;;4.20;1.83;;;6.60;99.90;;;;;;4970522;28;20509;-75
2023/04/13 03:15:46;;;;;;;4.93;1.83;;;8.00;99.90;;;;;;4951472;28;20045;-76
2023/04/13 03:18:12;;;;;;;3.53;1.70;;;6.60;99.90;;;;;;4973836;28;20034;-75
2023/04/13 03:20:37;;;;;;;4.82;1.77;;;6.60;99.90;;;;;;4976374;28;20502;-75
2023/04/13 03:23:04;;;;;;;3.33;1.80;;;6.70;99.90;;;;;;4979502;28;20042;-74
2023/04/13 03:25:30;;;;;;;3.38;1.98;;;6.60;99.90;;;;;;4959200;28;20050;-75
2023/04/13 03:27:55;;;;;;;4.18;2.00;;;6.60;99.90;;;;;;4999814;23;20095;-78
2023/04/13 03:30:21;;;;;;;4.22;2.00;;;6.60;99.90;;;;;;4983174;28;20046;-76
2023/04/13 03:32:47;;;;;;;4.72;2.00;;;6.60;99.90;;;;;;4994972;28;20037;-77
2023/04/13 03:35:13;;;;;;;3.92;2.13;;;6.60;99.90;;;;;;5004762;28;20180;-78
2023/04/13 03:37:43;;;;;;;4.38;1.92;;;6.60;99.90;;;;;;5020658;28;20050;-77
2023/04/13 03:40:09;;;;;;;4.85;1.90;;;6.70;99.90;;;;;;5001911;28;20049;-78
2023/04/13 03:42:36;;;;;;;4.97;1.83;;;6.60;99.90;;;;;;5009645;28;20382;-78
2023/04/13 03:45:02;;;;;;;4.32;2.15;;;6.60;99.90;;;;;;4997664;28;20049;-76
2023/04/13 03:47:28;;;;;;;3.65;1.90;;;6.70;99.90;;;;;;4994811;28;20417;-77
2023/04/13 03:49:54;;;;;;;5.80;2.42;;;6.70;99.90;;;;;;4995853;28;20044;-76
2023/04/13 03:52:19;;;;;;;3.15;1.92;;;6.70;99.90;;;;;;4997724;28;20124;-78
2023/04/13 03:54:45;;;;;;;3.50;1.88;;;6.70;99.90;;;;;;4999952;28;20052;-77
2023/04/13 03:57:11;;;;;;;3.28;1.88;;;6.70;99.90;;;;;;4975149;28;20061;-77
2023/04/13 03:59:36;;;;;;;4.28;1.95;;;6.70;99.90;;;;;;4995300;28;20100;-77
2023/04/13 04:02:02;;;;;;;4.35;2.05;;;6.70;99.90;;;;;;4997171;28;20038;-76
2023/04/13 04:04:28;;;;;;;7.38;1.90;;;6.70;99.90;;;;;;4980495;28;20103;-77
2023/04/13 04:06:53;;;;;;;3.67;1.88;;;6.70;99.90;;;;;;4996108;28;20041;-76
2023/04/13 04:09:19;;;;;;;4.50;2.00;;;6.70;99.90;;;;;;4980227;28;20592;-77
2023/04/13 04:11:45;;;;;;;3.80;1.90;;;6.70;99.90;;;;;;4991455;28;20038;-76
2023/04/13 04:14:10;;;;;;;3.78;2.38;;;6.70;99.90;;;;;;4992580;28;20084;-77
2023/04/13 04:16:36;;;;;;;3.67;2.30;;;6.70;99.90;;;;;;4992692;28;20132;-77
2023/04/13 04:19:01;;;;;;;4.03;1.90;;;6.60;99.90;;;;;;4996046;28;20405;-77
2023/04/13 04:21:33;;;;;;;4.88;2.10;;;6.60;99.90;;;;;;5001886;28;20504;-77
2023/04/13 04:23:59;;;;;;;5.40;2.20;;;6.60;99.90;;;;;;5000354;28;20046;-78
2023/04/13 04:26:25;;;;;;;3.58;2.20;;;6.50;99.90;;;;;;4998109;28;20065;-78
2023/04/13 04:28:51;;;;;;;7.78;2.55;;;6.50;99.90;;;;;;5002575;28;20045;-77
2023/04/13 04:31:17;;;;;;;6.00;2.70;;;6.50;99.90;;;;;;4996988;28;20133;-78
2023/04/13 04:33:43;;;;;;;6.20;2.70;;;6.40;99.90;;;;;;4992412;28;20034;-77
2023/04/13 04:36:12;;;;;;;6.32;2.92;;;6.40;99.90;;;;;;4992307;28;20107;-77
2023/04/13 04:38:39;;;;;;;8.48;3.03;;;6.40;99.90;;;;;;4992214;28;20037;-77
2023/04/13 04:41:04;;;;;;;4.32;2.50;;;6.30;99.90;;;;;;4975981;28;20088;-77
2023/04/13 04:43:31;;;;;;;6.47;2.90;;;6.30;99.90;;;;;;4987944;28;20422;-77
2023/04/13 04:45:56;;;;;;;5.18;2.60;;;6.30;99.90;;;;;;4987839;28;20045;-77
2023/04/13 04:48:25;;;;;;;5.60;2.83;;;6.30;99.90;;;;;;4989101;28;20042;-77
2023/04/13 04:50:52;;;;;;;7.35;2.90;;;6.30;99.90;;;;;;4989291;28;20057;-77
2023/04/13 04:53:17;;;;;;;4.75;2.70;;;6.30;99.90;;;;;;4988462;28;20049;-78
2023/04/13 04:55:43;;;;;;;5.50;2.80;;;6.30;99.90;;;;;;4991946;28;20442;-77
2023/04/13 04:58:08;;;;;;;5.68;3.22;;;6.30;99.90;;;;;;4983229;28;20042;-77
2023/04/13 05:00:34;;;;;;;5.30;2.92;;;6.20;99.90;;;;;;4973821;28;20048;-77
2023/04/13 05:03:00;;;;;;;5.35;2.83;;;6.20;99.90;;;;;;4990520;28;20038;-77
2023/04/13 05:05:29;;;;;;;6.05;3.00;;;6.20;99.90;;;;;;4989896;28;20122;-77
2023/04/13 05:07:54;;;;;;;6.15;2.80;;;6.20;99.90;;;;;;4991338;28;20128;-77
2023/04/13 05:10:23;;;;;;;5.88;2.80;;;6.10;99.90;;;;;;4991645;28;20126;-77
2023/04/13 05:12:49;;;;;;;5.65;3.08;;;6.10;99.90;;;;;;4987788;28;20050;-77
2023/04/13 05:15:15;;;;;;;6.07;2.63;;;6.10;99.90;;;;;;5010600;28;20125;-77
2023/04/13 05:17:40;;;;;;;8.45;3.45;;;6.10;99.90;;;;;;4993408;28;20778;-77
2023/04/13 05:20:07;;;;;;;5.80;3.10;;;6.10;99.90;;;;;;4993775;28;20451;-77
2023/04/13 05:22:32;;;;;;;5.13;2.97;;;6.10;99.90;;;;;;4991918;28;20428;-77
2023/04/13 05:24:58;;;;;;;7.82;3.15;;;6.10;99.90;;;;;;4997988;28;20079;-77
2023/04/13 05:27:23;;;;;;;6.65;3.30;;;6.10;99.90;;;;;;4990436;28;20083;-77
2023/04/13 05:29:50;;;;;;;6.00;3.15;;;6.20;99.90;;;;;;4976550;28;20046;-77
2023/04/13 05:32:15;;;;;;;7.63;3.30;;;6.10;99.90;;;;;;4990364;28;20033;-77
2023/04/13 05:34:41;;;;;;;5.30;2.90;;;6.20;99.90;;;;;;4985587;28;20050;-77
2023/04/13 05:37:08;;;;;;;9.40;3.45;;;6.10;99.90;;;;;;5005338;28;20124;-77
2023/04/13 05:39:34;;;;;;;7.03;3.65;;;6.20;99.90;;;;;;4996264;28;20041;-77
2023/04/13 05:42:00;;;;;;;8.43;3.80;;;6.20;99.90;;;;;;4978071;28;20030;-77
2023/04/13 05:44:26;;;;;;;7.45;3.58;;;6.20;99.90;;;;;;4992345;28;20160;-77
2023/04/13 05:46:52;;;;;;;7.20;3.50;;;6.30;99.90;;;;;;4991864;28;20549;-77
2023/04/13 05:49:17;;;;;;;10.20;4.40;;;6.30;99.90;;;;;;4994167;28;20056;-77
2023/04/13 05:51:43;;;;;;;10.20;4.57;;;6.30;99.90;;;;;;4985508;28;20045;-77
2023/04/13 05:54:09;;;;;;;9.48;4.50;;;6.40;99.90;;;;;;4987836;28;20504;-77
2023/04/13 05:56:35;;;;;;;8.85;4.28;;;6.40;99.90;;;;;;4984634;28;20041;-77
2023/04/13 05:59:02;;;;;;;11.88;4.35;;;6.50;99.90;;;;;;4997460;28;20037;-78
2023/04/13 06:01:28;;;;;;;10.27;4.13;;;6.50;99.90;;;;;;4997236;28;20073;-77
2023/04/13 06:03:54;;;;;;;9.50;4.75;;;6.60;99.90;;;;;;4987816;28;20140;-78
2023/04/13 06:06:20;;;;;;;8.20;4.18;;;6.60;99.90;;;;;;4981573;28;20072;-78
2023/04/13 06:16:08;;;;;;;6.75;3.72;;;6.70;99.90;;;;;;5019347;28;20032;-79
2023/04/13 06:18:34;;;;;;;12.23;4.10;;;6.70;99.90;;;;;;4993088;28;20083;-81
2023/04/13 06:21:00;;;;;;;12.55;3.75;;;6.70;99.90;;;;;;4999994;28;20045;-78
2023/04/13 06:23:25;;;;;;;9.15;4.00;;;6.70;99.90;;;;;;4996197;28;20045;-77
2023/04/13 06:25:51;;;;;;;8.75;3.25;;;6.80;99.90;;;;;;4990110;28;20073;-77
2023/04/13 06:28:17;;;;;;;7.15;4.20;;;6.80;99.90;;;;;;4995185;28;20049;-78
2023/04/13 06:30:42;;;;;;;11.23;4.00;;;6.80;99.90;;;;;;4999817;28;20080;-78
2023/04/13 06:33:08;;;;;;;8.77;3.40;;;7.00;99.90;;;;;;4983407;28;20073;-78
2023/04/13 06:35:35;;;;;;;9.02;3.47;;;7.00;99.90;;;;;;4997634;28;20092;-77
2023/04/13 06:38:01;;;;;;;9.57;4.03;;;7.10;99.90;;;;;;4996565;28;20050;-78
2023/04/13 06:40:27;;;;;;;10.73;3.72;;;7.20;99.90;;;;;;5000486;28;20042;-78
2023/04/13 06:42:53;;;;;;;8.38;3.55;;;7.20;99.90;;;;;;5000283;28;20042;-78
2023/04/13 06:45:19;;;;;;;9.35;4.68;;;7.30;99.90;;;;;;4998289;28;20103;-77
2023/04/13 06:47:46;;;;;;;10.60;4.32;;;7.30;99.90;;;;;;4980901;28;20041;-77
2023/04/13 06:50:14;;;;;;;8.27;4.18;;;7.30;99.90;;;;;;4995383;28;20117;-77
2023/04/13 06:52:45;;;;;;;8.63;3.95;;;7.30;99.90;;;;;;4997040;28;20034;-77
2023/04/13 06:55:11;;;;;;;10.57;4.13;;;7.40;99.90;;;;;;4996985;28;20398;-77
2023/04/13 06:57:37;;;;;;;9.48;3.60;;;7.40;99.90;;;;;;4991122;28;20053;-77
2023/04/13 07:00:05;;;;;;;7.25;3.40;;;7.50;99.90;;;;;;4991312;28;20033;-78
2023/04/13 07:02:30;;;;;;;10.32;3.67;;;7.40;99.90;;;;;;4989552;28;20054;-77
2023/04/13 07:04:57;;;;;;;10.95;3.38;;;7.50;99.90;;;;;;4997883;28;20052;-78
2023/04/13 07:07:22;;;;;;;8.88;3.78;;;7.40;99.90;;;;;;4991069;28;20125;-78
2023/04/13 07:09:48;;;;;;;8.50;3.50;;;7.40;99.90;;;;;;4989710;28;20485;-78
2023/04/13 07:12:14;;;;;;;12.75;3.40;;;7.50;99.90;;;;;;4995893;28;20073;-78
2023/04/13 07:14:40;;;;;;;5.97;2.88;;;7.50;99.90;;;;;;4990451;28;20050;-77
2023/04/13 07:17:06;;;;;;;10.23;3.28;;;7.50;99.90;;;;;;4999983;28;20042;-77
2023/04/13 07:19:33;;;;;;;9.25;3.47;;;7.50;99.90;;;;;;4997598;28;20069;-78
2023/04/13 07:22:01;;;;;;;9.07;3.20;;;7.50;99.90;;;;;;5001284;28;20513;-78
2023/04/13 07:24:28;;;;;;;9.02;3.10;;;7.50;99.90;;;;;;4997584;28;20490;-78
2023/04/13 07:26:56;;;;;;;9.25;2.80;;;7.50;99.90;;;;;;5000239;28;20037;-78
2023/04/13 07:29:25;;;;;;;9.30;2.83;;;7.60;99.90;;;;;;4986924;28;20129;-78
2023/04/13 07:31:51;;;;;;;7.82;2.90;;;7.60;99.90;;;;;;4998886;28;20049;-78
2023/04/13 07:34:17;;;;;;;8.80;2.90;;;7.60;99.90;;;;;;4999028;28;20041;-78
2023/04/13 07:36:43;;;;;;;4.85;2.33;;;7.70;99.90;;;;;;4992997;28;20110;-78
2023/04/13 07:39:10;;;;;;;6.55;2.28;;;7.70;99.90;;;;;;4985061;28;20431;-78
2023/04/13 07:41:36;;;;;;;6.68;2.42;;;7.60;99.90;;;;;;4999284;28;20038;-78
2023/04/13 07:44:03;;;;;;;5.40;2.10;;;7.70;99.90;;;;;;4993496;28;20038;-78
2023/04/13 07:46:29;;;;;;;6.65;2.22;;;7.70;99.90;;;;;;4998836;28;20040;-78
2023/04/13 07:48:55;;;;;;;7.28;2.00;;;7.70;99.90;;;;;;5001826;28;20158;-78
2023/04/13 07:51:20;;;;;;;6.20;2.13;;;7.80;99.90;;;;;;4996399;28;20042;-79
2023/04/13 07:53:46;;;;;;;7.35;2.22;;;7.90;99.90;;;;;;5000526;28;20048;-78
2023/04/13 07:56:12;;;;;;;6.05;2.00;;;8.00;99.90;;;;;;5003092;28;20065;-77
2023/04/13 07:58:37;;;;;;;7.20;2.40;;;8.00;99.90;;;;;;4981296;28;20044;-78
2023/04/13 08:01:03;;;;;;;6.65;1.98;;;8.10;99.90;;;;;;4998037;28;20038;-78
2023/04/13 08:03:35;;;;;;;4.38;1.90;;;8.10;99.90;;;;;;4992366;28;20046;-78
2023/04/13 08:06:07;;;;;;;7.38;2.28;;;8.10;99.90;;;;;;4998830;28;20037;-78
2023/04/13 08:08:33;;;;;;;5.97;1.80;;;8.10;99.90;;;;;;5002631;28;20038;-78
2023/04/13 08:10:59;;;;;;;4.35;2.10;;;8.10;99.90;;;;;;4999500;28;20052;-78
2023/04/13 08:13:28;;;;;;;2.20;1.40;;;8.20;99.90;;;;;;5002122;28;20037;-79
2023/04/13 08:15:56;;;;;;;5.10;2.05;;;8.20;99.90;;;;;;5008530;28;20089;-78
2023/04/13 08:18:27;;;;;;;6.13;2.10;;;8.20;99.90;;;;;;5010285;28;20042;-79
2023/04/13 08:20:53;;;;;;;4.55;2.17;;;8.20;99.90;;;;;;5007439;28;20129;-78
2023/04/13 08:23:20;;;;;;;4.50;2.15;;;8.20;99.90;;;;;;4994159;28;20426;-78
2023/04/13 08:25:46;;;;;;;7.30;2.47;;;8.20;99.90;;;;;;5012376;28;20506;-79
2023/04/13 08:28:12;;;;;;;5.70;3.10;;;8.20;99.90;;;;;;4977533;28;20033;-79
2023/04/13 08:30:37;;;;;;;5.78;2.60;;;8.20;99.90;;;;;;4993509;28;20046;-79
2023/04/13 08:33:03;;;;;;;7.75;2.88;;;8.30;99.90;;;;;;4988873;28;20045;-78
2023/04/13 08:35:29;;;;;;;6.15;2.38;;;8.30;99.90;;;;;;4999138;28;20072;-78
2023/04/13 08:37:54;;;;;;;5.63;2.28;;;8.40;99.90;;;;;;4995242;28;20045;-79
2023/04/13 08:40:21;;;;;;;6.75;1.92;;;8.40;99.90;;;;;;5002211;28;20057;-79
2023/04/13 08:42:47;;;;;;;5.65;2.50;;;8.40;99.90;;;;;;4999203;28;20172;-79
2023/04/13 08:45:13;;;;;;;7.55;2.42;;;8.30;99.90;;;;;;4997515;28;20089;-79
2023/04/13 08:47:40;;;;;;;7.15;2.50;;;8.30;99.90;;;;;;4993556;28;20069;-79
2023/04/13 08:50:07;;;;;;;8.13;2.70;;;8.30;99.90;;;;;;4999781;28;20037;-79
2023/04/13 08:52:34;;;;;;;5.55;2.40;;;8.20;99.90;;;;;;5001032;28;20101;-78
2023/04/13 08:55:03;;;;;;;4.93;1.83;;;8.10;99.90;;;;;;5003644;28;20079;-79
2023/04/13 08:57:29;;;;;;;2.42;1.30;;;8.10;99.90;;;;;;4995119;28;20050;-78
2023/04/13 08:59:57;;;;;;;4.40;1.30;;;8.10;99.90;;;;;;4996918;28;20041;-79
2023/04/13 09:02:25;;;;;;;5.60;1.30;;;8.10;99.90;;;;;;4979625;28;20548;-79
2023/04/13 09:04:53;;;;;;;5.18;1.08;;;8.10;99.90;;;;;;4996619;28;20069;-79
2023/04/13 09:07:26;;;;;;;3.25;1.20;;;8.10;99.90;;;;;;4995495;28;20049;-79
2023/04/13 09:09:58;;;;;;;2.90;1.10;;;8.10;99.90;;;;;;4995700;28;20062;-79
2023/04/13 09:12:25;;;;;;;3.15;1.08;;;8.10;99.90;;;;;;4995580;28;20038;-79
2023/04/13 09:14:51;;;;;;;2.83;1.05;;;8.10;99.90;;;;;;5001503;28;20104;-79
2023/04/13 09:17:27;;;;;;;5.40;1.30;;;8.10;99.90;;;;;;4996156;28;20124;-79
2023/04/13 09:19:55;;;;;;;6.57;1.58;;;8.20;99.90;;;;;;4998530;28;20042;-78
2023/04/13 09:22:20;;;;;;;4.65;1.33;;;8.10;99.90;;;;;;4984771;28;20549;-78
2023/04/13 09:24:47;;;;;;;3.58;1.30;;;8.10;99.90;;;;;;4989961;28;20125;-79
2023/04/13 09:27:22;;;;;;;4.20;1.33;;;8.10;99.90;;;;;;5005932;23;20048;-75
2023/04/13 09:29:53;;;;;;;4.63;0.82;;;8.00;99.90;;;;;;4985952;28;20041;-75
2023/04/13 09:32:27;;;;;;;3.70;0.90;;;7.80;99.90;;;;;;4987781;28;20095;-75
2023/04/13 09:35:03;;;;;;;1.50;0.70;;;7.70;99.90;;;;;;4985921;28;20124;-75
2023/04/13 09:37:31;;;;;;;3.63;0.90;;;7.50;99.90;;;;;;4997084;28;20325;-75
2023/04/13 09:40:07;;;;;;;4.38;1.10;;;7.50;99.90;;;;;;4993956;28;20061;-76
2023/04/13 09:42:33;;;;;;;4.72;1.30;;;7.60;99.90;;;;;;4990881;28;20054;-76
2023/04/13 09:44:58;;;;;;;2.88;1.00;;;7.80;99.90;;;;;;4992959;28;20041;-77
2023/04/13 09:47:25;;;;;;;4.70;1.30;;;9.10;99.90;;;;;;5008083;28;20069;-76
2023/04/13 09:49:51;;;;;;;7.53;1.60;;;8.30;99.90;;;;;;4994445;28;20564;-76
2023/04/13 09:52:23;;;;;;;6.78;1.50;;;8.80;99.90;;;;;;4983467;28;20263;-76
2023/04/13 09:54:53;;;;;;;;;;;9.20;99.90;;;;;;4993813;28;20042;-76
2023/04/13 09:57:36;;;;;;;7.43;1.75;;;9.40;99.90;;;;;;4986489;28;20000;-76
2023/04/13 10:00:06;;;;;;;8.27;1.90;;;9.50;99.90;;;;;;4983663;28;20402;-76
2023/04/13 10:02:32;;;;;;;7.97;1.70;;;9.50;99.90;;;;;;4990917;28;20050;-75
2023/04/13 10:04:59;;;;;;;8.65;1.95;;;9.50;99.90;;;;;;4991360;28;20038;-76
2023/04/13 10:07:28;;;;;;;9.32;1.67;;;9.50;99.90;;;;;;4991289;28;20074;-76
2023/04/13 10:09:54;;;;;;;10.32;1.75;;;9.50;99.90;;;;;;5008454;28;20042;-76
2023/04/13 10:12:21;;;;;;;9.13;2.40;;;9.80;99.90;;;;;;4988698;28;20045;-76
2023/04/13 10:14:48;;;;;;;7.00;1.70;;;9.60;99.90;;;;;;4981852;28;20042;-76
2023/04/13 10:17:18;;;;;;;10.90;2.53;;;9.50;99.90;;;;;;4991218;28;20038;-76
2023/04/13 10:19:53;;;;;;;8.60;1.88;;;9.40;99.90;;;;;;4993047;28;20084;-76
2023/04/13 10:22:22;;;;;;;11.10;2.33;;;9.40;99.90;;;;;;4979044;28;20050;-76
2023/04/13 10:24:50;;;;;;;10.65;1.90;;;9.60;99.90;;;;;;4994156;28;20052;-74
2023/04/13 10:27:18;;;;;;;5.97;1.95;;;9.60;99.90;;;;;;4992919;28;20069;-75
2023/04/13 10:29:44;;;;;;;9.90;2.38;;;9.70;99.90;;;;;;4991927;28;20075;-75
2023/04/13 10:32:22;;;;;;;10.18;2.22;;;9.80;99.90;;;;;;5010552;28;20026;-75
2023/04/13 10:34:48;;;;;;;14.77;2.50;;;9.90;99.90;;;;;;4993076;28;20038;-74
2023/04/13 10:37:32;;;;;;;11.35;2.35;;;9.90;99.90;;;;;;4992535;28;20501;-73
2023/04/13 10:40:05;;;;;;;11.77;2.28;;;10.00;99.90;;;;;;4990518;28;20489;-74
2023/04/13 10:42:41;;;;;;;13.35;2.30;;;10.10;99.90;;;;;;5002001;28;20069;-73
2023/04/13 10:45:37;;;;;;;6.75;2.05;;;10.10;99.90;;;;;;4991464;28;20052;-75
2023/04/13 10:48:03;;;;;;;9.27;2.17;;;10.30;99.90;;;;;;4978163;28;20394;-74
2023/04/13 10:50:29;;;;;;;10.02;2.33;;;10.30;99.90;;;;;;4995897;28;20089;-74
2023/04/13 10:52:59;;;;;;;13.10;2.85;;;10.30;99.90;;;;;;4979611;28;20137;-74
2023/04/13 10:55:26;;;;;;;7.57;1.80;;;10.30;99.90;;;;;;5021462;28;20034;-74
2023/04/13 10:57:56;;;;;;;9.23;2.17;;;10.30;99.90;;;;;;4997228;28;20049;-75
2023/04/13 11:00:26;;;;;;;9.63;2.00;;;10.30;99.90;;;;;;4996741;28;20073;-74
2023/04/13 11:02:57;;;;;;;13.15;2.13;;;10.30;99.90;;;;;;4980780;28;20030;-74
2023/04/13 11:05:25;;;;;;;8.95;1.73;;;10.30;99.90;;;;;;5016646;28;20061;-73
2023/04/13 11:07:51;;;;;;;11.85;2.38;;;10.20;99.90;;;;;;4999214;28;20456;-74
2023/04/13 11:10:27;;;;;;;7.63;1.88;;;10.20;99.90;;;;;;4997457;28;20049;-74
2023/04/13 11:12:55;;;;;;;11.02;2.15;;;10.10;99.90;;;;;;4995791;28;20041;-74
2023/04/13 11:15:28;;;;;;;10.07;2.40;;;10.10;99.90;;;;;;4994248;28;20046;-74
2023/04/13 11:17:59;;;;;;;9.35;2.50;;;10.00;99.90;;;;;;4987649;28;20034;-74
2023/04/13 11:20:35;;;;;;;6.28;1.70;;;10.00;99.90;;;;;;4995322;28;20053;-74
2023/04/13 11:23:03;;;;;;;10.18;1.88;;;10.10;99.90;;;;;;4995929;28;20052;-73
2023/04/13 11:25:29;;;;;;;15.00;2.83;;;10.20;99.90;;;;;;4993546;28;20045;-74
2023/04/13 11:28:00;;;;;;;16.88;2.40;;;10.30;99.90;;;;;;4992716;28;20053;-74
2023/04/13 11:30:26;;;;;;;11.38;2.28;;;10.40;99.90;;;;;;4971376;28;20053;-74
2023/04/13 11:32:53;;;;;;;9.10;2.05;;;10.50;99.90;;;;;;5013559;28;20057;-74
2023/04/13 11:35:21;;;;;;;11.25;2.53;;;10.50;99.90;;;;;;4988918;28;20038;-74
2023/04/13 11:37:49;;;;;;;9.55;2.80;;;10.40;99.90;;;;;;5012581;28;20034;-74
2023/04/13 11:40:20;;;;;;;10.55;2.50;;;10.40;99.90;;;;;;4996855;28;20074;-74
2023/04/13 11:42:58;;;;;;;10.35;2.33;;;10.50;99.90;;;;;;5002712;28;20088;-74
2023/04/13 11:45:25;;;;;;;7.15;1.80;;;10.60;99.90;;;;;;4994633;28;20561;-73
2023/04/13 11:47:52;;;;;;;10.27;1.70;;;10.50;99.90;;;;;;4994107;28;20050;-74
2023/04/13 11:50:19;;;;;;;9.55;1.88;;;10.50;99.90;;;;;;5014604;28;20042;-74
2023/04/13 11:52:46;;;;;;;9.82;2.08;;;10.50;99.90;;;;;;4988363;28;20042;-73
2023/04/13 11:55:13;;;;;;;12.13;2.50;;;10.50;99.90;;;;;;4992703;28;20038;-74
2023/04/13 11:57:40;;;;;;;12.63;2.00;;;10.50;99.90;;;;;;4995137;28;20438;-73
2023/04/13 12:00:22;;;;;;;9.43;1.85;;;10.40;99.90;;;;;;4994021;28;20528;-74
2023/04/13 12:02:50;;;;;;;;;;;10.40;99.90;;;;;;4993538;28;20548;-74
2023/04/13 12:05:23;;;;;;;12.88;2.20;;;10.30;99.90;;;;;;5000891;28;19917;-74
2023/04/13 12:07:52;;;;;;;14.52;2.67;;;10.20;99.90;;;;;;4999634;28;20049;-74
2023/04/13 12:10:33;;;;;;;12.70;2.40;;;10.10;99.90;;;;;;4993047;28;20054;-73
2023/04/13 12:12:59;;;;;;;8.45;1.77;;;10.20;99.90;;;;;;5010891;28;20045;-74
2023/04/13 12:15:28;;;;;;;10.60;2.03;;;10.10;99.90;;;;;;4997619;28;20050;-72
2023/04/13 12:17:56;;;;;;;11.25;2.30;;;10.10;99.90;;;;;;4987933;28;20037;-74
2023/04/13 12:20:21;;;;;;;12.15;2.33;;;10.10;99.90;;;;;;4994480;28;20133;-73
2023/04/13 12:22:47;;;;;;;15.43;2.47;;;10.20;99.90;;;;;;4993595;28;20129;-74
2023/04/13 12:25:21;;;;;;;10.02;2.30;;;10.30;99.90;;;;;;5012058;28;20038;-74
2023/04/13 12:27:51;;;;;;;13.38;2.60;;;10.40;99.90;;;;;;4994522;28;20079;-74
2023/04/13 12:30:19;;;;;;;11.30;2.28;;;10.30;99.90;;;;;;4988491;28;20045;-74
2023/04/13 12:32:46;;;;;;;11.00;2.00;;;10.30;99.90;;;;;;4978330;28;20556;-74
2023/04/13 12:35:13;;;;;;;10.18;2.33;;;10.30;99.90;;;;;;4994073;28;20037;-74
2023/04/13 12:37:42;;;;;;;7.80;2.15;;;10.30;99.90;;;;;;4994414;28;20041;-74
2023/04/13 12:40:11;;;;;;;11.50;2.53;;;10.40;99.90;;;;;;4993894;28;20053;-73
2023/04/13 12:42:46;;;;;;;8.80;1.90;;;10.50;99.90;;;;;;4991697;28;20049;-73
2023/04/13 12:45:13;;;;;;;12.25;2.30;;;10.60;99.90;;;;;;5001763;28;20117;-73
2023/04/13 12:47:39;;;;;;;15.18;2.47;;;10.70;99.90;;;;;;5011770;28;20394;-74
2023/04/13 12:50:07;;;;;;;8.52;2.00;;;10.70;99.90;;;;;;4993010;28;20046;-74
2023/04/13 12:52:34;;;;;;;13.75;2.20;;;10.70;99.90;;;;;;4994116;28;20053;-73
2023/04/13 12:55:00;;;;;;;10.40;2.25;;;10.70;99.90;;;;;;4992798;28;20529;-74
2023/04/13 12:57:27;;;;;;;13.02;2.28;;;10.80;99.90;;;;;;5023381;28;20033;-74
2023/04/13 12:59:53;;;;;;;12.75;2.03;;;11.00;99.90;;;;;;4991544;28;20041;-73
2023/04/13 13:02:20;;;;;;;10.68;2.40;;;11.10;99.90;;;;;;4986766;28;20045;-74
2023/04/13 13:04:45;;;;;;;9.90;2.03;;;11.30;99.90;;;;;;4988556;28;20042;-74